Details From KVLL - OAKLAND TROY
To KMCD - MACKINAC ISLAND
Flight Number -
Tags generated
Created
Modified
Stats Distance 219 nm / 406 km
Max Altitude 21,400 ft / 6,523 m
Waypoints 4
Social Downloads 6
Likes 0
Share

Download

Looking for another format? Having issues loading an existing format? Contact us
Advertisement - Login to hide

Notes

Basic altitude profile: - Ascent Rate: 2000ft/min - Ascent Speed: 180kts - Cruise Altitude: 16000ft - Cruise Speed: 270kts - Descent Rate: 1300ft/min - Descent Speed: 240kts Options: - Use NATs: yes - Use PACOTS: yes - Use low airways: no - Use high airways: yes

Route

KVLL DIRKS ASP KMCD

ID Type Via Altitude (ft/m) Position (lat/lon) Dist (leg/tot) Name
O KVLL APT - 0 / 0 42.54294 / -83.17791 - / 0 nm OAKLAND TROY
DIRKS FIX - 20,700 / 6,309 43.49928 / -83.64804 61 / 61 nm
ASP DME - 21,400 / 6,523 44.44913 / -83.39428 58 / 119 nm AU SABLE VOR-DME
O KMCD APT - 0 / 0 45.86494 / -84.63734 100 / 219 nm MACKINAC ISLAND

Altitude Profile

Advertisement - Login to hide

Weather


0- 5 10 15 20 25 30 35+ Temperature / °C

Clouds and Precipitation
Forecast for 2020-10-25 18:00 UTC. Updated 37 minutes ago

Ground ~20,000 ft ~40,000 ft Winds

KVLL

Details ICAO KVLL
Name OAKLAND TROY
Region United States
Timezone America/Detroit (UTC-4.0)
Stats Elevation 729 ft / 222 m (AMSL)
Location 42.543000° -83.177900°
Runways 1
Magnetic Variation 7.575° W

METAR

KVLL 251555Z AUTO 05004KT 10SM OVC090 06/M01 A3026 RMK AO2 T00571008

Decode

TAF

Not found

Departure Runways

ID Width Length Bearing (true/mag) Surface Threshold Overrun Markings Lighting
09 60 ft / 18 m 3,542 ft / 1,080 m 89.72° / 97.29° ASPHALT 0 ft / 0 m 276 ft / 84 m APP EDGE THRESHOLD
27 60 ft / 18 m 3,542 ft / 1,080 m 269.73° / 277.30° ASPHALT 0 ft / 0 m 0 ft / 0 m APP EDGE THRESHOLD

KMCD

Details ICAO KMCD
Name MACKINAC ISLAND
Region United States
Timezone America/Detroit (UTC-4.0)
Stats Elevation 740 ft / 226 m (AMSL)
Location 45.864900° -84.637300°
Runways 1
Magnetic Variation 7.170° W

METAR

KMCD 251555Z AUTO 00000KT 10SM OVC037 03/00 A3027 RMK AO2 T00291004

Decode

TAF

Not found

Destination Runways

ID Width Length Bearing (true/mag) Surface Threshold Overrun Markings Lighting
08 75 ft / 23 m 3,495 ft / 1,065 m 75.24° / 82.41° ASPHALT 0 ft / 0 m 0 ft / 0 m APP EDGE THRESHOLD REIL-OMNI
26 75 ft / 23 m 3,495 ft / 1,065 m 255.25° / 262.42° ASPHALT 0 ft / 0 m 0 ft / 0 m APP EDGE THRESHOLD REIL-OMNI

Popular Alternatives